LERS/REU METAR and TAF weather

Enter ICAO airport designator
Station Type Date Time Source
LERS METAR 2024/02/26 17:00 UTC NOAA

LERS 261700Z 30015G26KT 9999 SCT045 16/01 Q0999


Station Type Date Time Source
LERS Decoded METAR 2024/02/26 17:00 UTC NOAA

Reus / Aeropuerto, Spain (LERS) 41-09N 001-10E 76M
Feb 26, 2024 - 12:00 PM EST / 2024.02.26 1700 UTC
Wind: from the WNW (300 degrees) at 17 MPH (15 KT) gusting to 30 MPH (26 KT):0
Visibility: greater than 7 mile(s):0
Sky conditions: partly cloudy
Temperature: 60 F (16 C)
Dew Point: 33 F (1 C)
Relative Humidity: 36%
Pressure (altimeter): 29.50 in. Hg (0999 hPa)
ob: LERS 261700Z 30015G26KT 9999 SCT045 16/01 Q0999
cycle: 17

Station Type Date Time Source
LERS TAF 2024/02/26 15:51 UTC NOAA